Time;durP1;ratioP1;P1;durP2;ratioP2;P2;SDS_P1;SDS_P2;PMS_P1;PMS_P2;Temp;Humidity;BMP_temperature;BMP_pressure;BME280_temperature;BME280_humidity;BME280_pressure;Samples;Min_cycle;Max_cycle;Signal;HPM_P1;HPM_P2
2021/04/12 00:01:08;;;;;;;4.28;2.30;;;;;;;-0.05;100.00;102183.91;3584265;40;20048;-62
2021/04/12 00:03:43;;;;;;;6.60;2.45;;;;;;;-0.06;100.00;102188.34;3585066;40;20066;-61
2021/04/12 00:06:17;;;;;;;5.65;2.45;;;;;;;-0.06;100.00;102184.81;3585615;40;20395;-61
2021/04/12 00:08:50;;;;;;;8.18;2.78;;;;;;;-0.14;100.00;102187.63;3584358;40;20052;-62
2021/04/12 00:11:27;;;;;;;4.80;2.80;;;;;;;-0.17;100.00;102187.72;3585394;40;20286;-62
2021/04/12 00:13:58;;;;;;;7.60;2.92;;;;;;;-0.15;100.00;102192.97;3584609;40;20133;-62
2021/04/12 00:16:30;;;;;;;6.07;2.58;;;;;;;-0.21;100.00;102191.31;3585741;40;20045;-61
2021/04/12 00:19:00;;;;;;;7.65;3.25;;;;;;;-0.29;100.00;102193.28;3583864;40;20491;-61
2021/04/12 00:21:31;;;;;;;9.05;3.13;;;;;;;-0.38;100.00;102200.50;3585401;40;20416;-62
2021/04/12 00:24:02;;;;;;;6.00;3.35;;;;;;;-0.45;100.00;102192.72;3584598;40;20068;-62
2021/04/12 00:26:34;;;;;;;8.43;3.45;;;;;;;-0.43;100.00;102197.06;3584685;40;20281;-62
2021/04/12 00:29:05;;;;;;;8.85;3.83;;;;;;;-0.44;100.00;102203.28;3584198;40;20048;-60
2021/04/12 00:31:37;;;;;;;6.57;3.50;;;;;;;-0.54;100.00;102199.09;3584940;40;20039;-63
2021/04/12 00:34:11;;;;;;;7.03;3.78;;;;;;;-0.61;100.00;102192.16;3584821;40;20429;-61
2021/04/12 00:36:44;;;;;;;4.68;3.13;;;;;;;-0.70;100.00;102198.50;3585145;40;20044;-61
2021/04/12 00:39:15;;;;;;;6.88;3.70;;;;;;;-0.69;100.00;102194.09;3584363;40;20051;-61
2021/04/12 00:42:06;;;;;;;5.50;3.50;;;;;;;-0.78;100.00;102198.69;3584275;40;20044;-61
2021/04/12 00:44:53;;;;;;;11.65;4.45;;;;;;;-0.82;100.00;102202.28;3584130;40;20045;-61
2021/04/12 00:47:36;;;;;;;11.95;3.88;;;;;;;-0.87;100.00;102206.75;3583740;40;20080;-61
2021/04/12 00:50:20;;;;;;;6.00;3.30;;;;;;;-0.91;100.00;102207.75;3584231;40;20372;-61
2021/04/12 00:53:10;;;;;;;9.18;4.00;;;;;;;-0.90;100.00;102206.81;3584387;40;20060;-61
2021/04/12 00:55:43;;;;;;;12.15;3.83;;;;;;;-0.90;100.00;102217.41;3584408;40;20037;-61
2021/04/12 00:58:20;;;;;;;10.15;4.80;;;;;;;-0.86;100.00;102219.09;3583860;40;20545;-61
2021/04/12 01:00:54;;;;;;;8.77;3.55;;;;;;;-0.93;100.00;102218.34;3584130;40;20060;-61
2021/04/12 01:03:30;;;;;;;8.30;3.75;;;;;;;-0.92;100.00;102219.22;3584705;40;20157;-61
2021/04/12 01:06:06;;;;;;;7.50;3.53;;;;;;;-0.94;100.00;102218.38;3583173;40;20037;-61
2021/04/12 01:09:03;;;;;;;7.05;3.50;;;;;;;-0.95;100.00;102224.56;3584094;40;20052;-61
2021/04/12 01:11:51;;;;;;;6.40;3.85;;;;;;;-1.02;100.00;102223.78;3584908;40;20604;-61
2021/04/12 01:14:53;;;;;;;8.02;3.53;;;;;;;-0.99;100.00;102223.72;3584295;40;20380;-61
2021/04/12 01:17:43;;;;;;;6.50;4.50;;;;;;;-1.00;100.00;102222.00;3586074;40;20044;-62
2021/04/12 01:20:42;;;;;;;8.63;4.07;;;;;;;-1.00;100.00;102227.28;3584129;40;20056;-63
2021/04/12 01:23:27;;;;;;;;;;;;;;;-0.98;100.00;102224.63;3586565;40;20114;-62
2021/04/12 01:26:26;;;;;;;7.72;4.40;;;;;;;-0.91;100.00;102220.97;3586472;40;19932;-61
2021/04/12 01:29:39;;;;;;;9.38;4.50;;;;;;;-0.90;100.00;102225.31;3584578;40;20105;-61
2021/04/12 01:32:25;;;;;;;10.13;4.45;;;;;;;-0.93;100.00;102228.03;3585428;40;20047;-61
2021/04/12 01:35:15;;;;;;;7.57;4.70;;;;;;;-0.92;100.00;102232.44;3584762;40;20352;-62
2021/04/12 01:37:47;;;;;;;;;;;;;;;-0.96;100.00;102222.81;3587062;40;20092;-62
2021/04/12 01:40:25;;;;;;;12.77;5.25;;;;;;;-0.99;100.00;102241.38;3584901;40;20000;-61
2021/04/12 01:42:58;;;;;;;10.25;5.07;;;;;;;-1.03;100.00;102237.03;3586105;40;20129;-61
2021/04/12 01:45:37;;;;;;;10.88;5.15;;;;;;;-1.09;100.00;102244.19;3586286;40;20048;-61
2021/04/12 01:48:26;;;;;;;7.85;4.32;;;;;;;-1.06;100.00;102241.47;3585517;40;20081;-62
2021/04/12 01:51:22;;;;;;;8.02;4.30;;;;;;;-1.15;100.00;102239.00;3586671;40;20639;-61
2021/04/12 01:54:23;;;;;;;10.82;5.35;;;;;;;-1.17;100.00;102246.06;3562987;40;20061;-60
2021/04/12 01:57:16;;;;;;;12.32;5.78;;;;;;;-1.16;100.00;102253.09;3585387;40;20052;-61
2021/04/12 01:59:54;;;;;;;9.80;4.93;;;;;;;-1.21;100.00;102244.38;3585260;40;20045;-61
2021/04/12 02:02:33;;;;;;;9.10;5.45;;;;;;;-1.22;100.00;102253.22;3585357;40;20048;-61
2021/04/12 02:05:25;;;;;;;11.88;5.97;;;;;;;-1.19;100.00;102258.44;3586722;40;20052;-61
2021/04/12 02:08:15;;;;;;;9.18;6.10;;;;;;;-1.21;100.00;102265.50;3584932;40;20399;-61
2021/04/12 02:10:58;;;;;;;13.38;6.10;;;;;;;-1.18;100.00;102269.88;3632302;23;20451;-61
2021/04/12 02:13:42;;;;;;;11.85;6.85;;;;;;;-1.21;100.00;102268.16;3613784;22;20061;-63
2021/04/12 02:16:22;;;;;;;11.15;6.55;;;;;;;-1.17;100.00;102272.50;3548944;40;20050;-62
2021/04/12 02:19:06;;;;;;;10.45;6.07;;;;;;;-1.23;100.00;102272.59;3555522;40;20518;-61
2021/04/12 02:21:53;;;;;;;11.63;6.20;;;;;;;-1.26;100.00;102264.72;3556512;40;20053;-61
2021/04/12 02:24:30;;;;;;;14.68;6.50;;;;;;;-1.25;100.00;102271.75;3556200;40;20155;-61
2021/04/12 02:27:06;;;;;;;9.95;5.80;;;;;;;-1.23;100.00;102267.31;3556008;40;20038;-61
2021/04/12 02:29:39;;;;;;;10.20;6.20;;;;;;;-1.23;100.00;102262.03;3555922;40;20045;-61
2021/04/12 02:32:20;;;;;;;12.32;6.05;;;;;;;-1.25;100.00;102275.25;3555468;40;20097;-61
2021/04/12 02:34:51;;;;;;;9.65;6.03;;;;;;;-1.24;100.00;102274.38;3555581;40;20056;-61
2021/04/12 02:37:35;;;;;;;14.38;7.05;;;;;;;-1.16;100.00;102276.88;3556162;40;20052;-61
2021/04/12 02:40:13;;;;;;;12.55;6.90;;;;;;;-1.10;100.00;102276.78;3555907;40;20049;-61
2021/04/12 02:42:49;;;;;;;8.93;5.72;;;;;;;-1.00;100.00;102285.44;3555897;40;20052;-61
2021/04/12 02:45:26;;;;;;;12.90;5.82;;;;;;;-0.98;100.00;102280.13;3556493;40;20044;-61
2021/04/12 02:48:08;;;;;;;12.57;5.75;;;;;;;-1.00;100.00;102287.19;3556078;40;20053;-61
2021/04/12 02:50:53;;;;;;;10.45;5.50;;;;;;;-0.94;100.00;102284.44;3556117;40;20054;-61
2021/04/12 02:53:50;;;;;;;11.32;5.75;;;;;;;-0.85;100.00;102286.91;3556036;40;20064;-61
2021/04/12 02:56:52;;;;;;;10.80;5.30;;;;;;;-0.89;100.00;102293.16;3556318;40;20045;-60
2021/04/12 02:59:37;;;;;;;11.85;5.28;;;;;;;-0.96;100.00;102295.03;3536678;40;20049;-60
2021/04/12 03:04:51;;;;;;;11.05;4.57;;;;;;;-0.99;100.00;102302.16;3615092;23;20057;-61
2021/04/12 03:08:08;;;;;;;10.38;4.70;;;;;;;-0.83;100.00;102298.31;3585659;40;20037;-60
2021/04/12 03:10:55;;;;;;;8.80;4.90;;;;;;;-0.90;100.00;102296.69;3582984;40;20306;-61
2021/04/12 03:13:51;;;;;;;7.18;4.80;;;;;;;-0.92;100.00;102303.78;3586137;40;20071;-61
2021/04/12 03:16:56;;;;;;;9.23;4.88;;;;;;;-0.89;100.00;102299.31;3586096;40;20044;-61
2021/04/12 03:19:44;;;;;;;7.25;3.97;;;;;;;-0.84;100.00;102299.25;3585713;40;20072;-61
2021/04/12 03:22:23;;;;;;;10.88;5.05;;;;;;;-0.84;100.00;102296.59;3582176;40;20055;-60
2021/04/12 03:25:10;;;;;;;7.97;4.38;;;;;;;-0.88;100.00;102302.84;3586385;40;20593;-61
2021/04/12 03:27:54;;;;;;;11.23;4.90;;;;;;;-0.81;100.00;102301.84;3586365;40;20045;-60
2021/04/12 03:30:33;;;;;;;11.15;4.45;;;;;;;-0.79;100.00;102310.59;3584622;40;20080;-61
2021/04/12 03:33:06;;;;;;;7.03;4.60;;;;;;;-0.75;100.00;102307.00;3581934;40;20064;-61
2021/04/12 03:35:49;;;;;;;9.23;4.07;;;;;;;-0.79;100.00;102315.88;3585289;40;20056;-61
2021/04/12 03:38:30;;;;;;;8.23;4.30;;;;;;;-0.65;100.00;102309.47;3585884;40;20048;-61
2021/04/12 03:41:15;;;;;;;8.63;4.10;;;;;;;-0.60;100.00;102310.28;3584894;40;20086;-60
2021/04/12 03:44:01;;;;;;;8.80;4.45;;;;;;;-0.61;100.00;102319.09;3585716;40;20137;-61
2021/04/12 03:46:33;;;;;;;8.48;4.60;;;;;;;-0.63;100.00;102307.66;3585947;40;20056;-61
2021/04/12 03:49:33;;;;;;;6.05;3.72;;;;;;;-0.60;100.00;102310.28;3585941;40;20054;-61
2021/04/12 03:52:41;;;;;;;9.95;4.75;;;;;;;-0.54;100.00;102312.81;3585894;40;20341;-61
2021/04/12 03:55:23;;;;;;;8.95;4.68;;;;;;;-0.61;100.00;102316.47;3585119;40;20040;-62
2021/04/12 03:58:10;;;;;;;8.73;4.07;;;;;;;-0.58;100.00;102319.03;3586204;40;20064;-61
2021/04/12 04:00:43;;;;;;;9.80;4.28;;;;;;;-0.62;100.00;102317.34;3584965;40;20177;-61
2021/04/12 04:03:28;;;;;;;11.07;4.60;;;;;;;-0.69;100.00;102323.66;3585159;40;20404;-61
2021/04/12 04:06:15;;;;;;;9.30;5.05;;;;;;;-0.68;100.00;102333.34;3585667;40;20059;-61
2021/04/12 04:08:55;;;;;;;12.35;5.32;;;;;;;-0.70;100.00;102333.34;3585178;40;20055;-61
2021/04/12 04:11:39;;;;;;;11.27;5.55;;;;;;;-0.74;100.00;102327.28;3585505;40;20161;-61
2021/04/12 04:14:43;;;;;;;9.60;5.32;;;;;;;-0.77;100.00;102329.94;3584963;40;20059;-61
2021/04/12 04:17:23;;;;;;;7.93;4.32;;;;;;;-0.83;100.00;102335.34;3570469;40;20041;-61
2021/04/12 04:20:04;;;;;;;9.68;4.78;;;;;;;-0.79;100.00;102326.47;3585031;40;20409;-61
2021/04/12 04:23:01;;;;;;;8.20;4.70;;;;;;;-0.78;100.00;102333.50;3584772;40;20121;-61
2021/04/12 04:26:00;;;;;;;8.48;4.90;;;;;;;-0.96;100.00;102339.09;3584756;40;20072;-61
2021/04/12 04:28:57;;;;;;;6.88;4.70;;;;;;;-1.04;100.00;102339.22;3585185;40;20400;-62
2021/04/12 04:32:02;;;;;;;7.55;4.65;;;;;;;-1.04;100.00;102341.00;3651470;22;20503;-62
2021/04/12 04:34:33;;;;;;;12.30;5.80;;;;;;;-1.12;100.00;102333.19;3585797;40;20080;-61
2021/04/12 04:37:11;;;;;;;9.93;5.75;;;;;;;-1.10;100.00;102340.19;3585603;39;20133;-61
2021/04/12 04:39:55;;;;;;;10.15;4.88;;;;;;;-1.00;100.00;102351.50;3585422;40;20064;-61
2021/04/12 04:43:00;;;;;;;10.85;5.10;;;;;;;-1.06;100.00;102352.47;3586105;40;20068;-61
2021/04/12 04:45:44;;;;;;;9.00;5.47;;;;;;;-1.06;100.00;102349.81;3584767;40;21227;-61
2021/04/12 04:48:32;;;;;;;9.25;5.47;;;;;;;-0.97;100.00;102347.91;3585349;40;20130;-61
2021/04/12 04:51:24;;;;;;;12.38;5.68;;;;;;;-0.98;100.00;102351.47;3587572;40;20056;-61
2021/04/12 04:54:19;;;;;;;10.45;5.88;;;;;;;-0.98;100.00;102356.75;3587356;40;20433;-61
2021/04/12 04:57:01;;;;;;;8.38;5.78;;;;;;;-0.97;100.00;102354.09;3586435;40;20056;-61
2021/04/12 04:59:42;;;;;;;11.20;6.70;;;;;;;-0.92;100.00;102362.78;3586757;39;20396;-61
2021/04/12 05:02:32;;;;;;;13.25;6.93;;;;;;;-1.00;100.00;102359.41;3587444;40;20129;-61
2021/04/12 05:05:15;;;;;;;10.65;6.53;;;;;;;-0.99;100.00;102366.44;3587600;40;20044;-61
2021/04/12 05:08:01;;;;;;;11.90;6.18;;;;;;;-1.08;100.00;102372.72;3587801;40;20281;-61
2021/04/12 05:10:50;;;;;;;13.20;6.65;;;;;;;-1.06;100.00;102370.97;3586675;40;20088;-61
2021/04/12 05:13:33;;;;;;;12.15;6.68;;;;;;;-1.03;100.00;102379.72;3587035;40;20312;-61
2021/04/12 05:16:47;;;;;;;12.73;6.82;;;;;;;-0.99;100.00;102386.72;3587785;40;20330;-62
2021/04/12 05:19:30;;;;;;;11.00;5.93;;;;;;;-0.91;100.00;102390.13;3545441;40;20045;-61
2021/04/12 05:22:26;;;;;;;9.40;5.78;;;;;;;-0.88;100.00;102380.34;3583459;40;20048;-61
2021/04/12 05:25:03;;;;;;;9.07;6.00;;;;;;;-0.80;100.00;102393.44;3586387;40;20052;-61
2021/04/12 05:27:43;;;;;;;9.30;6.15;;;;;;;-0.56;100.00;102393.91;3586838;39;20129;-61
2021/04/12 05:30:38;;;;;;;10.27;5.82;;;;;;;-0.52;100.00;102389.47;3585702;40;20039;-61
2021/04/12 05:33:24;;;;;;;10.05;5.78;;;;;;;-0.46;100.00;102394.66;3585684;39;20060;-61
2021/04/12 05:36:06;;;;;;;14.02;6.88;;;;;;;-0.35;100.00;102397.97;3587770;40;20057;-61
2021/04/12 05:38:57;;;;;;;18.05;7.40;;;;;;;-0.26;100.00;102397.81;3586018;40;20122;-61
2021/04/12 05:41:37;;;;;;;14.73;6.55;;;;;;;-0.15;100.00;102405.53;3586444;40;20040;-61
2021/04/12 05:44:33;;;;;;;10.52;6.63;;;;;;;-0.03;100.00;102401.78;3586386;40;20064;-62
2021/04/12 05:47:22;;;;;;;8.48;6.10;;;;;;;0.19;100.00;102410.16;3587770;39;20092;-61
2021/04/12 05:50:14;;;;;;;12.18;6.88;;;;;;;0.18;100.00;102411.09;3586024;40;20040;-62
2021/04/12 05:53:09;;;;;;;10.07;5.90;;;;;;;0.32;100.00;102408.16;3587192;40;20059;-61
2021/04/12 05:56:02;;;;;;;8.98;5.65;;;;;;;0.45;100.00;102406.97;3574559;40;20060;-62
2021/04/12 05:59:03;;;;;;;11.80;5.68;;;;;;;0.59;100.00;102424.34;3585973;40;20086;-62
2021/04/12 06:01:49;;;;;;;9.45;5.00;;;;;;;0.71;100.00;102421.47;3585591;40;20044;-62
2021/04/12 06:04:29;;;;;;;8.98;4.35;;;;;;;0.89;100.00;102419.31;3587288;40;20156;-62
2021/04/12 06:07:29;;;;;;;7.90;4.07;;;;;;;0.94;100.00;102428.88;3587264;40;20072;-62
2021/04/12 06:10:28;;;;;;;5.65;3.53;;;;;;;0.98;100.00;102419.94;3586756;39;20069;-63
2021/04/12 06:13:28;;;;;;;8.10;3.95;;;;;;;0.96;100.00;102421.75;3579138;40;20046;-63
2021/04/12 06:16:14;;;;;;;9.32;3.95;;;;;;;1.07;100.00;102431.25;3585951;40;20041;-63
2021/04/12 06:18:58;;;;;;;6.03;3.53;;;;;;;1.22;100.00;102437.06;3586769;40;20052;-63
2021/04/12 06:21:53;;;;;;;7.63;3.53;;;;;;;1.49;100.00;102431.13;3586050;40;20044;-63
2021/04/12 06:24:31;;;;;;;6.97;3.35;;;;;;;1.67;100.00;102429.78;3580810;40;20043;-62
2021/04/12 06:27:21;;;;;;;5.70;3.63;;;;;;;1.91;100.00;102425.59;3587684;40;20045;-63
2021/04/12 06:30:38;;;;;;;4.85;3.00;;;;;;;2.00;100.00;102430.63;3583828;40;20056;-63
2021/04/12 06:36:31;;;;;;;4.13;2.67;;;;;;;2.12;100.00;102436.53;3645066;22;20118;-63
2021/04/12 06:39:30;;;;;;;9.00;2.83;;;;;;;2.19;100.00;102435.44;3594640;40;20445;-63
2021/04/12 06:42:23;;;;;;;4.70;2.40;;;;;;;2.24;100.00;102439.72;3595612;39;20040;-63
2021/04/12 06:45:09;;;;;;;6.57;2.38;;;;;;;2.24;100.00;102437.06;3594496;40;20136;-63
2021/04/12 06:48:28;;;;;;;6.60;2.72;;;;;;;2.31;100.00;102443.06;3594605;40;20369;-63
2021/04/12 06:51:26;;;;;;;3.50;2.63;;;;;;;2.36;100.00;102441.16;3595484;40;20046;-63
2021/04/12 06:54:43;;;;;;;6.90;2.40;;;;;;;2.58;100.00;102445.88;3594272;40;20164;-63
2021/04/12 06:57:55;;;;;;;5.78;2.30;;;;;;;2.82;100.00;102454.03;3594857;40;20400;-63
2021/04/12 07:01:04;;;;;;;3.45;1.77;;;;;;;3.10;100.00;102454.88;3595535;39;20036;-63
2021/04/12 07:04:08;;;;;;;4.87;1.63;;;;;;;3.27;100.00;102456.16;3595329;39;20116;-63
2021/04/12 07:07:17;;;;;;;4.57;1.70;;;;;;;3.36;100.00;102463.84;3595489;40;20270;-63
2021/04/12 07:10:10;;;;;;;5.90;1.80;;;;;;;3.43;100.00;102465.38;3588607;39;20050;-63
2021/04/12 07:13:05;;;;;;;5.47;1.98;;;;;;;3.42;100.00;102471.63;3595932;39;20058;-63
2021/04/12 07:16:17;;;;;;;2.38;1.40;;;;;;;3.48;100.00;102471.41;3595082;39;20040;-63
2021/04/12 07:19:14;;;;;;;6.15;1.30;;;;;;;3.70;100.00;102475.16;3595949;39;20279;-63
2021/04/12 07:22:13;;;;;;;5.72;1.60;;;;;;;3.80;100.00;102476.59;3595739;40;20040;-63
2021/04/12 07:25:20;;;;;;;4.50;1.60;;;;;;;4.07;100.00;102479.22;3593970;39;20087;-63
2021/04/12 07:28:19;;;;;;;2.90;1.20;;;;;;;4.23;100.00;102490.22;3594018;39;20128;-63
2021/04/12 07:31:24;;;;;;;5.72;1.50;;;;;;;4.54;100.00;102485.50;3594166;40;20044;-63
2021/04/12 07:37:38;;;;;;;4.85;1.52;;;;;;;4.23;100.00;102496.41;3542238;40;20097;-62
2021/04/12 07:40:37;;;;;;;4.70;1.67;;;;;;;4.41;100.00;102492.19;3541731;40;20413;-62
2021/04/12 07:43:21;;;;;;;;;;;;;;;4.50;100.00;102496.31;3540817;40;20326;-63
2021/04/12 07:46:15;;;;;;;5.57;1.50;;;;;;;4.76;100.00;102505.16;3541074;40;19957;-65
2021/04/12 07:49:29;;;;;;;6.43;2.20;;;;;;;4.49;100.00;102510.56;3541836;40;20448;-61
2021/04/12 07:52:23;;;;;;;5.88;1.58;;;;;;;4.25;100.00;102517.66;3542577;40;20286;-62
2021/04/12 08:40:55;;;;;;;2.67;1.10;;;;;;;4.74;100.00;102561.22;3618033;22;20044;-64
2021/04/12 08:43:45;;;;;;;3.63;1.30;;;;;;;4.66;100.00;102569.50;3594235;39;20297;-64
2021/04/12 08:46:36;;;;;;;4.05;0.90;;;;;;;4.67;100.00;102573.06;3594145;40;20052;-63
2021/04/12 08:49:14;;;;;;;3.92;1.10;;;;;;;4.68;100.00;102567.66;3595211;39;20068;-64
2021/04/12 08:52:31;;;;;;;3.45;1.25;;;;;;;4.62;100.00;102572.34;3595454;39;20036;-64
2021/04/12 08:55:28;;;;;;;4.07;1.17;;;;;;;5.47;100.00;102559.34;3595224;40;20032;-64
2021/04/12 08:58:36;;;;;;;4.03;1.75;;;;;;;5.45;100.00;102558.53;3594569;39;20071;-63
2021/04/12 09:01:38;;;;;;;5.35;1.42;;;;;;;5.44;100.00;102567.47;3593411;40;20048;-62
2021/04/12 09:04:41;;;;;;;2.88;1.10;;;;;;;5.60;100.00;102562.41;3593211;40;20064;-64
2021/04/12 09:07:36;;;;;;;5.28;1.60;;;;;;;5.80;100.00;102564.28;3593843;40;20448;-62
2021/04/12 09:10:39;;;;;;;6.93;1.10;;;;;;;6.08;100.00;102565.78;3593276;39;20088;-62
2021/04/12 09:13:52;;;;;;;3.60;1.30;;;;;;;6.09;100.00;102564.88;3589805;39;20508;-62
2021/04/12 09:16:30;;;;;;;2.80;1.50;;;;;;;6.25;100.00;102570.44;3584652;40;20059;-62
2021/04/12 09:19:23;;;;;;;7.22;1.50;;;;;;;6.45;100.00;102572.25;3591272;39;20084;-64
2021/04/12 09:22:22;;;;;;;5.60;1.33;;;;;;;6.37;100.00;102577.06;3594011;39;20044;-63
2021/04/12 09:25:11;;;;;;;5.72;1.30;;;;;;;6.36;100.00;102578.88;3592894;39;20367;-63
2021/04/12 09:27:52;;;;;;;2.92;1.45;;;;;;;6.34;100.00;102579.88;3593775;39;20080;-64
2021/04/12 09:30:59;;;;;;;4.45;1.90;;;;;;;6.43;100.00;102579.47;3592579;39;20080;-64
2021/04/12 09:34:00;;;;;;;3.05;1.48;;;;;;;6.55;100.00;102573.59;3592783;39;20051;-63
2021/04/12 09:36:59;;;;;;;7.05;1.92;;;;;;;6.10;100.00;102578.16;3595299;39;20044;-65
2021/04/12 09:39:42;;;;;;;9.93;1.80;;;;;;;5.73;100.00;102592.16;3595336;40;20078;-64
2021/04/12 09:42:45;;;;;;;4.18;1.90;;;;;;;5.09;100.00;102588.38;3596067;40;20064;-65
2021/04/12 09:45:48;;;;;;;3.97;1.60;;;;;;;4.62;100.00;102588.34;3594065;39;20457;-63
2021/04/12 09:48:35;;;;;;;3.38;1.70;;;;;;;4.78;100.00;102599.34;3595034;40;20056;-64
2021/04/12 09:51:39;;;;;;;6.60;1.60;;;;;;;5.40;100.00;102592.56;3594938;40;20056;-63
2021/04/12 09:54:44;;;;;;;5.05;1.92;;;;;;;5.86;100.00;102593.41;3594656;39;20322;-64
2021/04/12 09:57:53;;;;;;;3.92;1.60;;;;;;;5.22;100.00;102618.16;3596227;40;20079;-64
2021/04/12 10:00:38;;;;;;;3.45;2.17;;;;;;;4.89;100.00;102614.03;3594917;39;20303;-64
2021/04/12 10:03:45;;;;;;;3.78;2.17;;;;;;;4.58;100.00;102603.59;3593582;40;20040;-64
2021/04/12 10:06:40;;;;;;;4.78;2.10;;;;;;;5.38;100.00;102605.09;3595399;39;20331;-66
2021/04/12 10:09:36;;;;;;;4.68;1.98;;;;;;;5.83;100.00;102611.34;3593174;39;20140;-66
2021/04/12 10:12:53;;;;;;;3.30;2.05;;;;;;;5.84;100.00;102607.75;3593047;39;20050;-65
2021/04/12 10:15:28;;;;;;;2.13;1.65;;;;;;;6.26;100.00;102614.97;3563051;40;20049;-65
2021/04/12 10:18:07;;;;;;;2.90;1.60;;;;;;;6.56;100.00;102607.41;3563064;40;20049;-64
2021/04/12 10:20:41;;;;;;;3.75;2.00;;;;;;;7.00;100.00;102612.59;3585524;40;20052;-64
2021/04/12 10:23:16;;;;;;;2.65;1.52;;;;;;;6.99;100.00;102610.88;3594742;39;20060;-63
2021/04/12 10:25:48;;;;;;;3.50;1.50;;;;;;;6.83;100.00;102621.41;3594431;39;20044;-64
2021/04/12 10:28:20;;;;;;;3.63;2.05;;;;;;;5.99;100.00;102620.50;3593803;39;20047;-63
2021/04/12 10:30:56;;;;;;;2.70;1.80;;;;;;;5.69;100.00;102618.13;3594902;39;20056;-64
2021/04/12 10:33:42;;;;;;;3.63;1.90;;;;;;;5.69;100.00;102614.59;3594237;39;20042;-64
2021/04/12 10:36:20;;;;;;;4.03;1.77;;;;;;;5.97;100.00;102609.03;3595463;39;20461;-66
2021/04/12 10:38:53;;;;;;;3.58;1.83;;;;;;;6.38;100.00;102608.22;3594614;39;20111;-65
2021/04/12 10:41:26;;;;;;;3.42;1.75;;;;;;;6.54;100.00;102600.41;3593569;39;20048;-65
2021/04/12 10:43:58;;;;;;;5.20;1.83;;;;;;;6.94;100.00;102602.16;3595353;39;20055;-64
2021/04/12 10:46:29;;;;;;;8.18;1.90;;;;;;;6.61;100.00;102608.09;3591986;39;20113;-65
2021/04/12 10:49:00;;;;;;;2.53;1.60;;;;;;;6.30;100.00;102606.75;3593663;39;20902;-64
2021/04/12 10:51:37;;;;;;;3.15;2.05;;;;;;;6.88;100.00;102607.81;3592949;39;20157;-64
2021/04/12 10:54:40;;;;;;;3.05;2.08;;;;;;;7.07;100.00;102609.66;3593141;39;20052;-64
2021/04/12 10:57:36;;;;;;;4.35;1.70;;;;;;;7.45;100.00;102617.69;3540293;40;20298;-64
2021/04/12 11:00:22;;;;;;;5.03;1.88;;;;;;;6.48;100.00;102636.31;3588694;39;20040;-64
2021/04/12 11:03:19;;;;;;;2.47;1.58;;;;;;;5.02;100.00;102641.16;3592217;39;20044;-64
2021/04/12 11:06:08;;;;;;;4.00;1.63;;;;;;;4.55;100.00;102641.91;3594069;39;20101;-64
2021/04/12 11:08:46;;;;;;;5.15;1.80;;;;;;;4.13;100.00;102650.41;3593865;39;20050;-64
2021/04/12 11:11:20;;;;;;;7.20;2.30;;;;;;;3.90;100.00;102658.28;3592038;39;20077;-63
2021/04/12 11:13:50;;;;;;;2.78;2.08;;;;;;;3.92;100.00;102652.00;3588652;39;20059;-65
2021/04/12 11:16:20;;;;;;;4.70;2.00;;;;;;;3.74;100.00;102644.56;3592503;39;20803;-65
2021/04/12 11:19:10;;;;;;;4.97;1.80;;;;;;;3.69;100.00;102642.03;3593318;39;20054;-64
2021/04/12 11:21:43;;;;;;;7.15;1.88;;;;;;;3.93;100.00;102653.75;3592993;39;20410;-64
2021/04/12 11:24:20;;;;;;;2.10;1.38;;;;;;;4.01;100.00;102642.81;3593437;39;20136;-64
2021/04/12 11:27:19;;;;;;;5.65;1.17;;;;;;;4.01;100.00;102648.16;3593349;39;20072;-65
2021/04/12 11:30:01;;;;;;;2.42;1.75;;;;;;;4.06;100.00;102656.84;3585931;39;20070;-65
2021/04/12 11:32:41;;;;;;;3.03;0.90;;;;;;;3.83;100.00;102652.28;3594683;39;20050;-63
2021/04/12 11:35:08;;;;;;;;;;;;;;;3.78;100.00;102657.72;3594644;39;20040;-64
2021/04/12 11:37:49;;;;;;;1.50;1.20;;;;;;;3.92;100.00;102653.78;3594380;39;19936;-64
2021/04/12 11:40:20;;;;;;;1.48;1.05;;;;;;;4.67;100.00;102645.06;3593534;39;20052;-64
2021/04/12 11:42:53;;;;;;;1.25;1.00;;;;;;;5.14;100.00;102647.81;3595028;39;20058;-64
2021/04/12 11:45:24;;;;;;;2.40;1.35;;;;;;;5.48;100.00;102643.88;3591766;39;20044;-63
2021/04/12 11:48:02;;;;;;;2.17;1.40;;;;;;;5.46;100.00;102645.72;3592333;39;20107;-64
2021/04/12 11:50:34;;;;;;;2.55;1.40;;;;;;;6.01;100.00;102636.47;3591542;39;20043;-65
2021/04/12 11:53:11;;;;;;;4.15;2.00;;;;;;;6.63;100.00;102640.13;3594518;39;20099;-65
2021/04/12 11:55:46;;;;;;;4.60;2.67;;;;;;;6.78;100.00;102643.94;3593036;39;20029;-65
2021/04/12 11:58:16;;;;;;;3.28;1.90;;;;;;;7.16;100.00;102649.41;3593574;39;20050;-65
2021/04/12 12:00:58;;;;;;;2.92;1.88;;;;;;;7.44;100.00;102642.78;3593297;39;20089;-64
2021/04/12 12:03:42;;;;;;;2.90;1.85;;;;;;;7.24;100.00;102651.72;3591279;39;20082;-64
2021/04/12 12:06:22;;;;;;;4.18;2.30;;;;;;;7.57;100.00;102648.41;3592428;39;20056;-66
2021/04/12 12:08:56;;;;;;;4.55;2.00;;;;;;;7.40;100.00;102654.56;3592950;39;20287;-64
2021/04/12 12:11:32;;;;;;;4.03;2.15;;;;;;;7.52;100.00;102644.16;3591938;39;20071;-66
2021/04/12 12:14:03;;;;;;;6.88;2.95;;;;;;;7.67;100.00;102647.91;3594804;40;20042;-64
2021/04/12 12:16:32;;;;;;;5.72;2.60;;;;;;;7.52;100.00;102652.19;3593636;39;20288;-65
2021/04/12 12:19:04;;;;;;;7.47;2.80;;;;;;;7.13;100.00;102661.09;3590822;39;20048;-64
2021/04/12 12:21:37;;;;;;;5.25;2.17;;;;;;;6.68;100.00;102664.00;3592804;39;20036;-66
2021/04/12 12:24:15;;;;;;;5.22;2.75;;;;;;;5.88;100.00;102663.69;3591879;39;20375;-64
2021/04/12 12:26:54;;;;;;;7.63;2.95;;;;;;;6.04;100.00;102669.31;3592399;39;20052;-65
2021/04/12 12:29:23;;;;;;;3.97;2.92;;;;;;;6.86;100.00;102668.59;3591217;39;20526;-66
2021/04/12 12:32:05;;;;;;;;;;;;;;;6.37;100.00;102673.34;3593836;39;20112;-63
2021/04/12 12:34:43;;;;;;;6.32;3.10;;;;;;;5.83;100.00;102663.00;3591580;39;19946;-63
2021/04/12 12:37:20;;;;;;;3.85;2.60;;;;;;;5.96;100.00;102677.63;3591316;39;20091;-65
2021/04/12 12:39:48;;;;;;;3.67;2.80;;;;;;;6.19;100.00;102678.50;3591329;39;20047;-64
2021/04/12 12:42:22;;;;;;;5.13;3.00;;;;;;;6.97;100.00;102668.09;3592105;39;20052;-64
2021/04/12 12:44:49;;;;;;;111.88;76.32;;;;;;;8.03;100.00;102665.81;3592365;39;20052;-62
2021/04/12 12:47:22;;;;;;;5.22;3.08;;;;;;;7.51;100.00;102669.19;3590448;39;20063;-63
2021/04/12 12:49:52;;;;;;;5.15;2.97;;;;;;;8.06;100.00;102678.22;3592119;40;20636;-67
2021/04/12 12:52:27;;;;;;;5.80;2.83;;;;;;;7.66;100.00;102669.44;3591808;39;20052;-65
2021/04/12 12:54:54;;;;;;;3.30;3.00;;;;;;;7.56;100.00;102674.34;3593842;39;20044;-64
2021/04/12 12:57:28;;;;;;;7.13;3.08;;;;;;;7.14;100.00;102678.03;3592733;39;20112;-66
2021/04/12 12:59:58;;;;;;;5.03;3.10;;;;;;;7.42;100.00;102666.97;3593371;39;20080;-63
2021/04/12 13:02:33;;;;;;;7.22;3.30;;;;;;;7.29;100.00;102655.94;3591915;39;20070;-65
2021/04/12 13:05:04;;;;;;;5.70;3.58;;;;;;;6.86;100.00;102668.59;3592082;39;20059;-63
2021/04/12 13:07:32;;;;;;;7.53;2.30;;;;;;;6.74;100.00;102671.78;3591687;39;20044;-66
2021/04/12 13:10:02;;;;;;;4.53;1.70;;;;;;;6.69;100.00;102688.03;3593555;39;20044;-64
2021/04/12 13:12:32;;;;;;;4.05;1.60;;;;;;;6.48;100.00;102684.47;3591633;39;20044;-64
2021/04/12 13:15:14;;;;;;;2.20;1.40;;;;;;;6.37;100.00;102682.22;3593826;39;20358;-66
2021/04/12 13:17:41;;;;;;;3.30;1.40;;;;;;;6.15;100.00;102676.91;3591080;39;20065;-64
2021/04/12 13:20:11;;;;;;;3.20;1.20;;;;;;;6.22;100.00;102673.03;3586833;39;20051;-62
2021/04/12 13:22:40;;;;;;;3.10;1.30;;;;;;;6.21;100.00;102679.31;3591019;39;20042;-64
2021/04/12 13:25:33;;;;;;;4.10;1.13;;;;;;;6.23;100.00;102677.47;3636210;22;20067;31
2021/04/12 13:28:04;;;;;;;3.55;0.90;;;;;;;6.14;100.00;102681.38;3525118;40;20064;-63
2021/04/12 13:30:34;;;;;;;2.05;0.95;;;;;;;6.27;100.00;102678.19;3526980;40;20051;-64
2021/04/12 13:33:04;;;;;;;6.63;1.30;;;;;;;6.27;100.00;102681.75;3529649;40;20388;-66
2021/04/12 13:35:32;;;;;;;;;;;;;;;6.25;100.00;102678.25;3528862;40;20655;-64
2021/04/12 13:38:05;;;;;;;3.70;1.90;;;;;;;6.16;100.00;102686.66;3529496;40;19966;-65
2021/04/12 13:40:39;;;;;;;6.25;1.50;;;;;;;6.32;100.00;102679.75;3529589;40;20050;-65